サンパウロ/グアルーリョス の空港の天気 - METARとTAF

グアルーリョス国際空港 (サンパウロ) ( SBGR / GRU ) - ブラジル サンパウロ州サンパウロ市
飛行場実況気象(Metar)
観測時間08/04 16:00 BRT (08/04 19:00 UTC)
風向・風速東 4m/s
視程10km以上
天気現象
なし
気温23℃
湿度36%
気圧1027hPa
METARSBGR 041900Z 10007KT CAVOK 23/07 Q1027
過去の天気等 Google飛行場航空写真 Wunderground天気予報

過去48時間のMETAR

飛行場予報(TAF)
発表時間: 8/04 13:00 BRT (8/04 16:00 UTC)
予報対象時間: 4日15時 BRT ~ 5日21時 BRT
風向・風速東 3m/s
視程10km以上
なし
4日18時 BRT から 確率 40% で
風向・風速南南東 4m/s
視程6000m
全天の4割程度の雲 雲底高度 460m
4日22時 BRT ~ 4日24時 BRT に徐々に
風向・風速東北東 1m/s
視程6000m
なし
5日1時 BRT ~ 5日3時 BRT に徐々に
風向・風速東北東 5m/s
視程4000m
天気現象もや
全天の8割程度の雲 雲底高度 210m
5日4時 BRT から 確率 30% で
視程300m
天気現象
全天を覆う雲 鉛直視程 30m
5日9時 BRT ~ 5日11時 BRT に徐々に
視程10km以上
なし
5日17時 BRT ~ 5日19時 BRT に徐々に
風向・風速南東 4m/s
少しの雲 雲底高度 610m
TAF SBGR 041600Z 0418/0524 10006KT CAVOK TN11/0509Z TX23/0518Z
PROB40 0421/0424 15007KT 6000 SCT015
BECMG 0501/0503 07002KT 6000 NSC
BECMG 0504/0506 07010KT 4000 BR BKN007
PROB30 0507/0511 0300 FG VV001
BECMG 0512/0514 CAVOK
BECMG 0520/0522 14007KT FEW020 RMK PGD